sensor_id;sensor_type;location;lat;lon;timestamp;temperature;humidity
4759;DHT22;2393;50.560;12.636;2024-03-25T00:01:57;3.80;99.90
4759;DHT22;2393;50.560;12.636;2024-03-25T00:04:24;3.80;99.90
4759;DHT22;2393;50.560;12.636;2024-03-25T00:06:51;3.80;99.90
4759;DHT22;2393;50.560;12.636;2024-03-25T00:09:18;3.80;99.90
4759;DHT22;2393;50.560;12.636;2024-03-25T00:11:46;3.80;99.90
4759;DHT22;2393;50.560;12.636;2024-03-25T00:14:12;3.80;99.90
4759;DHT22;2393;50.560;12.636;2024-03-25T00:16:39;3.80;99.90
4759;DHT22;2393;50.560;12.636;2024-03-25T00:19:05;3.90;99.90
4759;DHT22;2393;50.560;12.636;2024-03-25T00:21:33;3.80;99.90
4759;DHT22;2393;50.560;12.636;2024-03-25T00:23:59;3.80;99.90
4759;DHT22;2393;50.560;12.636;2024-03-25T00:26:26;3.80;99.90
4759;DHT22;2393;50.560;12.636;2024-03-25T00:28:52;3.80;99.90
4759;DHT22;2393;50.560;12.636;2024-03-25T00:31:19;3.80;99.90
4759;DHT22;2393;50.560;12.636;2024-03-25T00:33:45;3.90;99.90
4759;DHT22;2393;50.560;12.636;2024-03-25T00:36:13;3.90;99.90
4759;DHT22;2393;50.560;12.636;2024-03-25T00:38:40;3.90;99.90
4759;DHT22;2393;50.560;12.636;2024-03-25T00:41:07;3.90;99.90
4759;DHT22;2393;50.560;12.636;2024-03-25T00:43:33;3.90;99.90
4759;DHT22;2393;50.560;12.636;2024-03-25T00:46:00;3.90;99.90
4759;DHT22;2393;50.560;12.636;2024-03-25T00:48:26;3.90;99.90
4759;DHT22;2393;50.560;12.636;2024-03-25T00:50:53;3.90;99.90
4759;DHT22;2393;50.560;12.636;2024-03-25T00:53:20;3.90;99.90
4759;DHT22;2393;50.560;12.636;2024-03-25T00:55:48;3.90;99.90
4759;DHT22;2393;50.560;12.636;2024-03-25T00:58:15;3.90;99.90
4759;DHT22;2393;50.560;12.636;2024-03-25T01:00:42;3.90;99.90
4759;DHT22;2393;50.560;12.636;2024-03-25T01:03:08;3.90;99.90
4759;DHT22;2393;50.560;12.636;2024-03-25T01:05:35;4.00;99.90
4759;DHT22;2393;50.560;12.636;2024-03-25T01:08:01;3.90;99.90
4759;DHT22;2393;50.560;12.636;2024-03-25T01:10:28;4.00;99.90
4759;DHT22;2393;50.560;12.636;2024-03-25T01:12:55;4.00;99.90
4759;DHT22;2393;50.560;12.636;2024-03-25T01:15:23;4.00;99.90
4759;DHT22;2393;50.560;12.636;2024-03-25T01:17:49;4.00;99.90
4759;DHT22;2393;50.560;12.636;2024-03-25T01:20:16;4.00;99.90
4759;DHT22;2393;50.560;12.636;2024-03-25T01:22:42;4.00;99.90
4759;DHT22;2393;50.560;12.636;2024-03-25T01:25:10;3.90;99.90
4759;DHT22;2393;50.560;12.636;2024-03-25T01:27:36;3.90;99.90
4759;DHT22;2393;50.560;12.636;2024-03-25T01:30:06;3.90;99.90
4759;DHT22;2393;50.560;12.636;2024-03-25T01:32:33;3.90;99.90
4759;DHT22;2393;50.560;12.636;2024-03-25T01:35:00;3.90;99.90
4759;DHT22;2393;50.560;12.636;2024-03-25T01:37:26;3.90;99.90
4759;DHT22;2393;50.560;12.636;2024-03-25T01:39:53;3.90;99.90
4759;DHT22;2393;50.560;12.636;2024-03-25T01:42:19;3.80;99.90
4759;DHT22;2393;50.560;12.636;2024-03-25T01:44:46;3.70;99.90
4759;DHT22;2393;50.560;12.636;2024-03-25T01:47:14;3.70;99.90
4759;DHT22;2393;50.560;12.636;2024-03-25T01:49:42;3.70;99.90
4759;DHT22;2393;50.560;12.636;2024-03-25T01:52:08;3.70;99.90
4759;DHT22;2393;50.560;12.636;2024-03-25T01:54:36;3.70;99.90
4759;DHT22;2393;50.560;12.636;2024-03-25T01:57:03;3.70;99.90
4759;DHT22;2393;50.560;12.636;2024-03-25T01:59:30;3.70;99.90
4759;DHT22;2393;50.560;12.636;2024-03-25T02:01:57;3.70;99.90
4759;DHT22;2393;50.560;12.636;2024-03-25T02:04:26;3.80;99.90
4759;DHT22;2393;50.560;12.636;2024-03-25T02:06:53;3.80;99.90
4759;DHT22;2393;50.560;12.636;2024-03-25T02:09:22;3.80;99.90
4759;DHT22;2393;50.560;12.636;2024-03-25T02:11:49;3.80;99.90
4759;DHT22;2393;50.560;12.636;2024-03-25T02:14:17;3.80;99.90
4759;DHT22;2393;50.560;12.636;2024-03-25T02:16:43;3.80;99.90
4759;DHT22;2393;50.560;12.636;2024-03-25T02:19:11;3.80;99.90
4759;DHT22;2393;50.560;12.636;2024-03-25T02:21:40;3.90;99.90
4759;DHT22;2393;50.560;12.636;2024-03-25T02:24:09;3.90;99.90
4759;DHT22;2393;50.560;12.636;2024-03-25T02:26:37;3.80;99.90
4759;DHT22;2393;50.560;12.636;2024-03-25T02:29:04;3.80;99.90
4759;DHT22;2393;50.560;12.636;2024-03-25T02:31:31;3.90;99.90
4759;DHT22;2393;50.560;12.636;2024-03-25T02:33:58;3.80;99.90
4759;DHT22;2393;50.560;12.636;2024-03-25T02:36:24;3.80;99.90
4759;DHT22;2393;50.560;12.636;2024-03-25T02:38:51;3.80;99.90
4759;DHT22;2393;50.560;12.636;2024-03-25T02:41:17;3.90;99.90
4759;DHT22;2393;50.560;12.636;2024-03-25T02:43:45;3.90;99.90
4759;DHT22;2393;50.560;12.636;2024-03-25T02:46:12;3.90;99.90
4759;DHT22;2393;50.560;12.636;2024-03-25T02:48:39;3.90;99.90
4759;DHT22;2393;50.560;12.636;2024-03-25T02:51:05;3.90;99.90
4759;DHT22;2393;50.560;12.636;2024-03-25T02:53:32;3.90;99.90
4759;DHT22;2393;50.560;12.636;2024-03-25T02:55:58;3.80;99.90
4759;DHT22;2393;50.560;12.636;2024-03-25T02:58:25;3.80;99.90
4759;DHT22;2393;50.560;12.636;2024-03-25T03:00:52;3.70;99.90
4759;DHT22;2393;50.560;12.636;2024-03-25T03:03:19;3.70;99.90
4759;DHT22;2393;50.560;12.636;2024-03-25T03:05:45;3.60;99.90
4759;DHT22;2393;50.560;12.636;2024-03-25T03:08:12;3.50;99.90
4759;DHT22;2393;50.560;12.636;2024-03-25T03:10:38;3.50;99.90
4759;DHT22;2393;50.560;12.636;2024-03-25T03:13:05;3.40;99.90
4759;DHT22;2393;50.560;12.636;2024-03-25T03:15:31;3.50;99.90
4759;DHT22;2393;50.560;12.636;2024-03-25T03:18:00;3.50;99.90
4759;DHT22;2393;50.560;12.636;2024-03-25T03:20:26;3.50;99.90
4759;DHT22;2393;50.560;12.636;2024-03-25T03:22:53;3.50;99.90
4759;DHT22;2393;50.560;12.636;2024-03-25T03:25:19;3.50;99.90
4759;DHT22;2393;50.560;12.636;2024-03-25T03:27:46;3.50;99.90
4759;DHT22;2393;50.560;12.636;2024-03-25T03:30:12;3.50;99.90
4759;DHT22;2393;50.560;12.636;2024-03-25T03:32:39;3.50;99.90
4759;DHT22;2393;50.560;12.636;2024-03-25T03:35:07;3.50;99.90
4759;DHT22;2393;50.560;12.636;2024-03-25T03:37:34;3.60;99.90
4759;DHT22;2393;50.560;12.636;2024-03-25T03:40:00;3.60;99.90
4759;DHT22;2393;50.560;12.636;2024-03-25T03:42:27;3.60;99.90
4759;DHT22;2393;50.560;12.636;2024-03-25T03:44:54;3.60;99.90
4759;DHT22;2393;50.560;12.636;2024-03-25T03:47:21;3.60;99.90
4759;DHT22;2393;50.560;12.636;2024-03-25T03:49:47;3.60;99.90
4759;DHT22;2393;50.560;12.636;2024-03-25T03:52:16;3.60;99.90
4759;DHT22;2393;50.560;12.636;2024-03-25T03:54:42;3.50;99.90
4759;DHT22;2393;50.560;12.636;2024-03-25T03:57:09;3.60;99.90
4759;DHT22;2393;50.560;12.636;2024-03-25T03:59:35;3.60;99.90
4759;DHT22;2393;50.560;12.636;2024-03-25T04:02:02;3.60;99.90
4759;DHT22;2393;50.560;12.636;2024-03-25T04:04:29;3.60;99.90
4759;DHT22;2393;50.560;12.636;2024-03-25T04:06:56;3.60;99.90
4759;DHT22;2393;50.560;12.636;2024-03-25T04:09:23;3.60;99.90
4759;DHT22;2393;50.560;12.636;2024-03-25T04:11:51;3.60;99.90
4759;DHT22;2393;50.560;12.636;2024-03-25T04:14:17;3.60;99.90
4759;DHT22;2393;50.560;12.636;2024-03-25T04:16:44;3.60;99.90
4759;DHT22;2393;50.560;12.636;2024-03-25T04:19:10;3.60;99.90
4759;DHT22;2393;50.560;12.636;2024-03-25T04:21:37;3.60;99.90
4759;DHT22;2393;50.560;12.636;2024-03-25T04:24:05;3.60;99.90
4759;DHT22;2393;50.560;12.636;2024-03-25T04:26:34;3.60;99.90
4759;DHT22;2393;50.560;12.636;2024-03-25T04:29:00;3.60;99.90
4759;DHT22;2393;50.560;12.636;2024-03-25T04:31:27;3.60;99.90
4759;DHT22;2393;50.560;12.636;2024-03-25T04:33:53;3.60;99.90
4759;DHT22;2393;50.560;12.636;2024-03-25T04:36:20;3.60;99.90
4759;DHT22;2393;50.560;12.636;2024-03-25T04:38:46;3.60;99.90
4759;DHT22;2393;50.560;12.636;2024-03-25T04:41:12;3.60;99.90
4759;DHT22;2393;50.560;12.636;2024-03-25T04:43:40;3.50;99.90
4759;DHT22;2393;50.560;12.636;2024-03-25T04:46:06;3.60;99.90
4759;DHT22;2393;50.560;12.636;2024-03-25T04:48:32;3.60;99.90
4759;DHT22;2393;50.560;12.636;2024-03-25T04:51:00;3.60;99.90
4759;DHT22;2393;50.560;12.636;2024-03-25T04:53:26;3.60;99.90
4759;DHT22;2393;50.560;12.636;2024-03-25T04:55:52;3.60;99.90
4759;DHT22;2393;50.560;12.636;2024-03-25T04:58:19;3.60;99.90
4759;DHT22;2393;50.560;12.636;2024-03-25T05:00:46;3.60;99.90
4759;DHT22;2393;50.560;12.636;2024-03-25T05:03:12;3.60;99.90
4759;DHT22;2393;50.560;12.636;2024-03-25T05:05:39;3.50;99.90
4759;DHT22;2393;50.560;12.636;2024-03-25T05:08:05;3.50;99.90
4759;DHT22;2393;50.560;12.636;2024-03-25T05:10:33;3.50;99.90
4759;DHT22;2393;50.560;12.636;2024-03-25T05:12:59;3.50;99.90
4759;DHT22;2393;50.560;12.636;2024-03-25T05:15:26;3.50;99.90
4759;DHT22;2393;50.560;12.636;2024-03-25T05:17:55;3.50;99.90
4759;DHT22;2393;50.560;12.636;2024-03-25T05:20:22;3.50;99.90
4759;DHT22;2393;50.560;12.636;2024-03-25T05:22:48;3.50;99.90
4759;DHT22;2393;50.560;12.636;2024-03-25T05:25:14;3.50;99.90
4759;DHT22;2393;50.560;12.636;2024-03-25T05:27:40;3.50;99.90
4759;DHT22;2393;50.560;12.636;2024-03-25T05:30:07;3.50;99.90
4759;DHT22;2393;50.560;12.636;2024-03-25T05:32:33;3.50;99.90
4759;DHT22;2393;50.560;12.636;2024-03-25T05:35:01;3.50;99.90
4759;DHT22;2393;50.560;12.636;2024-03-25T05:37:27;3.50;99.90
4759;DHT22;2393;50.560;12.636;2024-03-25T05:39:53;3.50;99.90
4759;DHT22;2393;50.560;12.636;2024-03-25T05:42:20;3.50;99.90
4759;DHT22;2393;50.560;12.636;2024-03-25T05:44:46;3.50;99.90
4759;DHT22;2393;50.560;12.636;2024-03-25T05:47:14;3.60;99.90
4759;DHT22;2393;50.560;12.636;2024-03-25T05:49:40;3.60;99.90
4759;DHT22;2393;50.560;12.636;2024-03-25T05:52:08;3.60;99.90
4759;DHT22;2393;50.560;12.636;2024-03-25T05:54:34;3.50;99.90
4759;DHT22;2393;50.560;12.636;2024-03-25T05:57:00;3.40;99.90
4759;DHT22;2393;50.560;12.636;2024-03-25T05:59:27;3.40;99.90
4759;DHT22;2393;50.560;12.636;2024-03-25T06:01:53;3.30;99.90
4759;DHT22;2393;50.560;12.636;2024-03-25T06:04:19;3.30;99.90
4759;DHT22;2393;50.560;12.636;2024-03-25T06:06:45;3.30;99.90
4759;DHT22;2393;50.560;12.636;2024-03-25T06:09:13;3.30;99.90
4759;DHT22;2393;50.560;12.636;2024-03-25T06:11:40;3.30;99.90
4759;DHT22;2393;50.560;12.636;2024-03-25T06:14:06;3.30;99.90
4759;DHT22;2393;50.560;12.636;2024-03-25T06:16:33;3.30;99.90
4759;DHT22;2393;50.560;12.636;2024-03-25T06:19:00;3.30;99.90
4759;DHT22;2393;50.560;12.636;2024-03-25T06:21:26;3.40;99.90
4759;DHT22;2393;50.560;12.636;2024-03-25T06:23:52;3.40;99.90
4759;DHT22;2393;50.560;12.636;2024-03-25T06:26:20;3.40;99.90
4759;DHT22;2393;50.560;12.636;2024-03-25T06:28:46;3.40;99.90
4759;DHT22;2393;50.560;12.636;2024-03-25T06:31:12;3.40;99.90
4759;DHT22;2393;50.560;12.636;2024-03-25T06:33:57;3.50;99.90
4759;DHT22;2393;50.560;12.636;2024-03-25T06:36:50;3.50;99.90
4759;DHT22;2393;50.560;12.636;2024-03-25T06:39:16;3.50;99.90
4759;DHT22;2393;50.560;12.636;2024-03-25T06:41:44;3.60;99.90
4759;DHT22;2393;50.560;12.636;2024-03-25T06:44:10;3.60;99.90
4759;DHT22;2393;50.560;12.636;2024-03-25T06:46:36;3.60;99.90
4759;DHT22;2393;50.560;12.636;2024-03-25T06:49:02;3.60;99.90
4759;DHT22;2393;50.560;12.636;2024-03-25T06:51:29;3.60;99.90
4759;DHT22;2393;50.560;12.636;2024-03-25T06:53:55;3.60;99.90
4759;DHT22;2393;50.560;12.636;2024-03-25T06:56:21;3.70;99.90
4759;DHT22;2393;50.560;12.636;2024-03-25T06:58:49;3.70;99.90
4759;DHT22;2393;50.560;12.636;2024-03-25T07:01:15;3.70;99.90
4759;DHT22;2393;50.560;12.636;2024-03-25T07:03:41;3.80;99.90
4759;DHT22;2393;50.560;12.636;2024-03-25T07:06:07;3.90;99.90
4759;DHT22;2393;50.560;12.636;2024-03-25T07:08:34;3.90;99.90
4759;DHT22;2393;50.560;12.636;2024-03-25T07:11:00;3.90;99.90
4759;DHT22;2393;50.560;12.636;2024-03-25T07:13:26;3.90;99.90
4759;DHT22;2393;50.560;12.636;2024-03-25T07:15:54;4.00;99.90
4759;DHT22;2393;50.560;12.636;2024-03-25T07:18:20;4.00;99.90
4759;DHT22;2393;50.560;12.636;2024-03-25T07:20:46;4.00;99.90
4759;DHT22;2393;50.560;12.636;2024-03-25T07:23:13;4.10;99.90
4759;DHT22;2393;50.560;12.636;2024-03-25T07:25:39;4.10;99.90
4759;DHT22;2393;50.560;12.636;2024-03-25T07:28:05;4.10;99.90
4759;DHT22;2393;50.560;12.636;2024-03-25T07:30:32;4.20;99.90
4759;DHT22;2393;50.560;12.636;2024-03-25T07:32:59;4.20;99.90
4759;DHT22;2393;50.560;12.636;2024-03-25T07:35:26;4.20;99.90
4759;DHT22;2393;50.560;12.636;2024-03-25T07:37:52;4.20;99.90
4759;DHT22;2393;50.560;12.636;2024-03-25T07:40:19;4.20;99.90
4759;DHT22;2393;50.560;12.636;2024-03-25T07:42:45;4.30;99.90
4759;DHT22;2393;50.560;12.636;2024-03-25T07:45:11;4.30;99.90
4759;DHT22;2393;50.560;12.636;2024-03-25T07:47:38;4.30;99.90
4759;DHT22;2393;50.560;12.636;2024-03-25T07:50:07;4.30;99.90
4759;DHT22;2393;50.560;12.636;2024-03-25T07:52:33;4.30;99.90
4759;DHT22;2393;50.560;12.636;2024-03-25T07:55:00;4.30;99.90
4759;DHT22;2393;50.560;12.636;2024-03-25T07:57:26;4.30;99.90
4759;DHT22;2393;50.560;12.636;2024-03-25T07:59:52;4.40;99.90
4759;DHT22;2393;50.560;12.636;2024-03-25T08:02:18;4.50;99.90
4759;DHT22;2393;50.560;12.636;2024-03-25T08:04:45;4.50;99.90
4759;DHT22;2393;50.560;12.636;2024-03-25T08:07:17;4.50;99.90
4759;DHT22;2393;50.560;12.636;2024-03-25T08:09:43;4.60;99.90
4759;DHT22;2393;50.560;12.636;2024-03-25T08:12:09;4.70;99.90
4759;DHT22;2393;50.560;12.636;2024-03-25T08:14:35;4.70;99.90
4759;DHT22;2393;50.560;12.636;2024-03-25T08:17:02;4.70;99.90
4759;DHT22;2393;50.560;12.636;2024-03-25T08:19:28;4.80;99.90
4759;DHT22;2393;50.560;12.636;2024-03-25T08:21:54;4.90;99.90
4759;DHT22;2393;50.560;12.636;2024-03-25T08:24:22;4.90;99.90
4759;DHT22;2393;50.560;12.636;2024-03-25T08:26:48;5.00;99.90
4759;DHT22;2393;50.560;12.636;2024-03-25T08:29:14;5.10;99.90
4759;DHT22;2393;50.560;12.636;2024-03-25T08:31:41;5.20;99.90
4759;DHT22;2393;50.560;12.636;2024-03-25T08:34:07;5.30;99.90
4759;DHT22;2393;50.560;12.636;2024-03-25T08:36:34;5.30;99.90
4759;DHT22;2393;50.560;12.636;2024-03-25T08:39:00;5.30;99.90
4759;DHT22;2393;50.560;12.636;2024-03-25T08:41:28;5.30;99.90
4759;DHT22;2393;50.560;12.636;2024-03-25T08:43:54;5.40;99.90
4759;DHT22;2393;50.560;12.636;2024-03-25T08:46:20;5.30;99.90
4759;DHT22;2393;50.560;12.636;2024-03-25T08:48:47;5.30;99.90
4759;DHT22;2393;50.560;12.636;2024-03-25T08:51:13;5.20;99.90
4759;DHT22;2393;50.560;12.636;2024-03-25T08:53:39;5.20;99.90
4759;DHT22;2393;50.560;12.636;2024-03-25T08:56:06;5.20;99.90
4759;DHT22;2393;50.560;12.636;2024-03-25T08:58:34;5.20;99.90
4759;DHT22;2393;50.560;12.636;2024-03-25T09:01:00;5.20;99.90
4759;DHT22;2393;50.560;12.636;2024-03-25T09:03:26;5.30;99.90
4759;DHT22;2393;50.560;12.636;2024-03-25T09:05:53;5.40;99.90
4759;DHT22;2393;50.560;12.636;2024-03-25T09:08:20;5.50;99.90
4759;DHT22;2393;50.560;12.636;2024-03-25T09:10:46;5.60;99.90
4759;DHT22;2393;50.560;12.636;2024-03-25T09:13:30;5.70;99.90
4759;DHT22;2393;50.560;12.636;2024-03-25T09:15:58;5.80;99.90
4759;DHT22;2393;50.560;12.636;2024-03-25T09:18:24;5.80;99.90
4759;DHT22;2393;50.560;12.636;2024-03-25T09:20:52;5.90;99.90
4759;DHT22;2393;50.560;12.636;2024-03-25T09:23:19;6.00;99.90
4759;DHT22;2393;50.560;12.636;2024-03-25T09:25:52;6.00;99.90
4759;DHT22;2393;50.560;12.636;2024-03-25T09:28:18;6.10;99.90
4759;DHT22;2393;50.560;12.636;2024-03-25T09:30:44;6.20;99.90
4759;DHT22;2393;50.560;12.636;2024-03-25T09:33:12;6.30;99.90
4759;DHT22;2393;50.560;12.636;2024-03-25T09:35:38;6.30;99.90
4759;DHT22;2393;50.560;12.636;2024-03-25T09:38:05;6.40;99.90
4759;DHT22;2393;50.560;12.636;2024-03-25T09:40:31;6.50;99.90
4759;DHT22;2393;50.560;12.636;2024-03-25T09:43:01;6.60;99.90
4759;DHT22;2393;50.560;12.636;2024-03-25T09:45:29;6.80;99.90
4759;DHT22;2393;50.560;12.636;2024-03-25T09:47:56;6.90;99.90
4759;DHT22;2393;50.560;12.636;2024-03-25T09:50:23;7.00;99.90
4759;DHT22;2393;50.560;12.636;2024-03-25T09:52:51;7.10;99.90
4759;DHT22;2393;50.560;12.636;2024-03-25T09:55:18;7.10;99.90
4759;DHT22;2393;50.560;12.636;2024-03-25T09:57:44;7.20;99.90
4759;DHT22;2393;50.560;12.636;2024-03-25T10:00:11;7.20;99.90
4759;DHT22;2393;50.560;12.636;2024-03-25T10:02:44;7.20;99.90
4759;DHT22;2393;50.560;12.636;2024-03-25T10:05:11;7.20;99.90
4759;DHT22;2393;50.560;12.636;2024-03-25T10:07:38;7.20;99.90
4759;DHT22;2393;50.560;12.636;2024-03-25T10:10:06;7.10;99.90
4759;DHT22;2393;50.560;12.636;2024-03-25T10:12:32;7.00;99.90
4759;DHT22;2393;50.560;12.636;2024-03-25T10:14:59;6.90;99.90
4759;DHT22;2393;50.560;12.636;2024-03-25T10:17:25;6.90;99.90
4759;DHT22;2393;50.560;12.636;2024-03-25T10:19:53;7.00;99.90
4759;DHT22;2393;50.560;12.636;2024-03-25T10:22:20;7.10;99.90
4759;DHT22;2393;50.560;12.636;2024-03-25T10:24:47;7.20;99.90
4759;DHT22;2393;50.560;12.636;2024-03-25T10:27:18;7.30;99.90
4759;DHT22;2393;50.560;12.636;2024-03-25T10:29:44;7.60;99.90
4759;DHT22;2393;50.560;12.636;2024-03-25T10:32:10;7.90;99.90
4759;DHT22;2393;50.560;12.636;2024-03-25T10:34:38;8.00;99.90
4759;DHT22;2393;50.560;12.636;2024-03-25T10:37:05;8.00;99.90
4759;DHT22;2393;50.560;12.636;2024-03-25T10:39:38;8.10;99.90
4759;DHT22;2393;50.560;12.636;2024-03-25T10:42:07;8.20;99.90
4759;DHT22;2393;50.560;12.636;2024-03-25T10:44:34;8.20;99.90
4759;DHT22;2393;50.560;12.636;2024-03-25T10:47:02;8.30;99.90
4759;DHT22;2393;50.560;12.636;2024-03-25T10:49:34;8.30;99.90
4759;DHT22;2393;50.560;12.636;2024-03-25T10:52:05;8.20;99.90
4759;DHT22;2393;50.560;12.636;2024-03-25T10:54:32;8.10;99.90
4759;DHT22;2393;50.560;12.636;2024-03-25T10:56:59;8.10;99.90
4759;DHT22;2393;50.560;12.636;2024-03-25T10:59:29;8.00;99.90
4759;DHT22;2393;50.560;12.636;2024-03-25T11:01:56;8.00;99.90
4759;DHT22;2393;50.560;12.636;2024-03-25T11:04:23;8.20;99.90
4759;DHT22;2393;50.560;12.636;2024-03-25T11:06:50;8.30;99.90
4759;DHT22;2393;50.560;12.636;2024-03-25T11:09:24;8.40;99.90
4759;DHT22;2393;50.560;12.636;2024-03-25T11:11:55;8.60;99.90
4759;DHT22;2393;50.560;12.636;2024-03-25T11:14:25;9.00;99.90
4759;DHT22;2393;50.560;12.636;2024-03-25T11:16:53;9.00;99.90
4759;DHT22;2393;50.560;12.636;2024-03-25T11:19:26;9.40;99.90
4759;DHT22;2393;50.560;12.636;2024-03-25T11:21:53;9.70;99.90
4759;DHT22;2393;50.560;12.636;2024-03-25T11:24:27;9.80;99.90
4759;DHT22;2393;50.560;12.636;2024-03-25T11:26:53;9.80;99.90
4759;DHT22;2393;50.560;12.636;2024-03-25T11:29:20;9.90;99.90
4759;DHT22;2393;50.560;12.636;2024-03-25T11:31:49;9.90;99.90
4759;DHT22;2393;50.560;12.636;2024-03-25T11:34:20;10.00;99.90
4759;DHT22;2393;50.560;12.636;2024-03-25T11:36:46;10.10;99.90
4759;DHT22;2393;50.560;12.636;2024-03-25T11:39:12;10.30;99.90
4759;DHT22;2393;50.560;12.636;2024-03-25T11:41:39;10.60;99.90
4759;DHT22;2393;50.560;12.636;2024-03-25T11:44:07;10.70;99.90
4759;DHT22;2393;50.560;12.636;2024-03-25T11:46:36;10.80;99.90
4759;DHT22;2393;50.560;12.636;2024-03-25T11:49:05;10.90;99.90
4759;DHT22;2393;50.560;12.636;2024-03-25T11:51:33;10.80;99.90
4759;DHT22;2393;50.560;12.636;2024-03-25T11:54:03;10.60;99.90
4759;DHT22;2393;50.560;12.636;2024-03-25T11:56:29;10.40;99.90
4759;DHT22;2393;50.560;12.636;2024-03-25T11:58:56;10.10;99.90
4759;DHT22;2393;50.560;12.636;2024-03-25T12:01:22;10.00;99.90
4759;DHT22;2393;50.560;12.636;2024-03-25T12:03:49;9.80;99.90
4759;DHT22;2393;50.560;12.636;2024-03-25T12:06:16;9.80;99.90
4759;DHT22;2393;50.560;12.636;2024-03-25T12:08:44;9.80;99.90
4759;DHT22;2393;50.560;12.636;2024-03-25T12:11:11;9.70;99.90
4759;DHT22;2393;50.560;12.636;2024-03-25T12:13:45;9.70;99.90
4759;DHT22;2393;50.560;12.636;2024-03-25T12:16:11;9.70;99.90
4759;DHT22;2393;50.560;12.636;2024-03-25T12:18:40;9.80;99.90
4759;DHT22;2393;50.560;12.636;2024-03-25T12:21:12;10.20;99.90
4759;DHT22;2393;50.560;12.636;2024-03-25T12:23:38;10.40;99.90
4759;DHT22;2393;50.560;12.636;2024-03-25T12:26:05;10.40;99.90
4759;DHT22;2393;50.560;12.636;2024-03-25T12:28:32;10.20;99.90
4759;DHT22;2393;50.560;12.636;2024-03-25T12:30:58;9.90;99.90
4759;DHT22;2393;50.560;12.636;2024-03-25T12:33:24;9.60;99.90
4759;DHT22;2393;50.560;12.636;2024-03-25T12:35:51;9.40;99.90
4759;DHT22;2393;50.560;12.636;2024-03-25T12:38:22;9.20;99.90
4759;DHT22;2393;50.560;12.636;2024-03-25T12:40:48;9.00;99.90
4759;DHT22;2393;50.560;12.636;2024-03-25T12:43:17;8.90;99.90
4759;DHT22;2393;50.560;12.636;2024-03-25T12:45:43;8.80;99.90
4759;DHT22;2393;50.560;12.636;2024-03-25T12:48:09;8.80;99.90
4759;DHT22;2393;50.560;12.636;2024-03-25T12:50:36;8.80;99.90
4759;DHT22;2393;50.560;12.636;2024-03-25T12:53:02;8.80;99.90
4759;DHT22;2393;50.560;12.636;2024-03-25T12:55:28;8.80;99.90
4759;DHT22;2393;50.560;12.636;2024-03-25T12:57:55;8.80;99.90
4759;DHT22;2393;50.560;12.636;2024-03-25T13:00:22;8.80;99.90
4759;DHT22;2393;50.560;12.636;2024-03-25T13:02:48;8.80;99.90
4759;DHT22;2393;50.560;12.636;2024-03-25T13:05:15;8.90;99.90
4759;DHT22;2393;50.560;12.636;2024-03-25T13:07:41;9.10;99.90
4759;DHT22;2393;50.560;12.636;2024-03-25T13:13:25;9.60;99.90
4759;DHT22;2393;50.560;12.636;2024-03-25T13:15:53;9.70;99.90
4759;DHT22;2393;50.560;12.636;2024-03-25T13:18:19;9.80;99.90
4759;DHT22;2393;50.560;12.636;2024-03-25T13:20:45;10.00;99.90
4759;DHT22;2393;50.560;12.636;2024-03-25T13:23:12;10.00;99.90
4759;DHT22;2393;50.560;12.636;2024-03-25T13:25:38;10.10;99.90
4759;DHT22;2393;50.560;12.636;2024-03-25T13:28:05;10.10;99.90
4759;DHT22;2393;50.560;12.636;2024-03-25T13:30:31;10.20;99.90
4759;DHT22;2393;50.560;12.636;2024-03-25T13:33:26;10.20;99.90
4759;DHT22;2393;50.560;12.636;2024-03-25T13:35:52;10.30;99.90
4759;DHT22;2393;50.560;12.636;2024-03-25T13:38:18;10.50;99.90
4759;DHT22;2393;50.560;12.636;2024-03-25T13:40:44;10.60;99.90
4759;DHT22;2393;50.560;12.636;2024-03-25T13:43:11;10.90;99.90
4759;DHT22;2393;50.560;12.636;2024-03-25T13:45:46;11.00;99.90
4759;DHT22;2393;50.560;12.636;2024-03-25T13:48:19;10.90;99.90
4759;DHT22;2393;50.560;12.636;2024-03-25T13:50:46;10.80;99.90
4759;DHT22;2393;50.560;12.636;2024-03-25T13:53:14;10.60;99.90
4759;DHT22;2393;50.560;12.636;2024-03-25T13:55:41;10.40;99.90
4759;DHT22;2393;50.560;12.636;2024-03-25T13:58:08;10.40;99.90
4759;DHT22;2393;50.560;12.636;2024-03-25T14:00:34;10.30;99.90
4759;DHT22;2393;50.560;12.636;2024-03-25T14:03:01;10.20;99.90
4759;DHT22;2393;50.560;12.636;2024-03-25T14:05:27;10.10;99.90
4759;DHT22;2393;50.560;12.636;2024-03-25T14:07:55;10.00;99.90
4759;DHT22;2393;50.560;12.636;2024-03-25T14:10:22;10.00;99.90
4759;DHT22;2393;50.560;12.636;2024-03-25T14:12:49;10.00;99.90
4759;DHT22;2393;50.560;12.636;2024-03-25T14:15:16;9.90;99.90
4759;DHT22;2393;50.560;12.636;2024-03-25T14:17:42;9.80;99.90
4759;DHT22;2393;50.560;12.636;2024-03-25T14:20:10;9.90;99.90
4759;DHT22;2393;50.560;12.636;2024-03-25T14:22:36;10.10;99.90
4759;DHT22;2393;50.560;12.636;2024-03-25T14:25:05;10.20;99.90
4759;DHT22;2393;50.560;12.636;2024-03-25T14:27:31;10.30;99.90
4759;DHT22;2393;50.560;12.636;2024-03-25T14:29:58;10.50;99.90
4759;DHT22;2393;50.560;12.636;2024-03-25T14:32:25;10.70;99.90
4759;DHT22;2393;50.560;12.636;2024-03-25T14:34:51;10.80;99.90
4759;DHT22;2393;50.560;12.636;2024-03-25T14:37:18;10.80;99.90
4759;DHT22;2393;50.560;12.636;2024-03-25T14:40:13;10.70;99.90
4759;DHT22;2393;50.560;12.636;2024-03-25T14:42:39;10.50;99.90
4759;DHT22;2393;50.560;12.636;2024-03-25T14:45:06;10.20;99.90
4759;DHT22;2393;50.560;12.636;2024-03-25T14:47:33;10.10;99.90
4759;DHT22;2393;50.560;12.636;2024-03-25T14:49:59;10.10;99.90
4759;DHT22;2393;50.560;12.636;2024-03-25T14:52:25;10.30;99.90
4759;DHT22;2393;50.560;12.636;2024-03-25T14:54:52;10.30;99.90
4759;DHT22;2393;50.560;12.636;2024-03-25T14:57:20;10.30;99.90
4759;DHT22;2393;50.560;12.636;2024-03-25T14:59:46;10.50;99.90
4759;DHT22;2393;50.560;12.636;2024-03-25T15:02:13;10.70;99.90
4759;DHT22;2393;50.560;12.636;2024-03-25T15:04:39;10.90;99.90
4759;DHT22;2393;50.560;12.636;2024-03-25T15:07:06;11.00;99.90
4759;DHT22;2393;50.560;12.636;2024-03-25T15:09:33;11.10;99.90
4759;DHT22;2393;50.560;12.636;2024-03-25T15:12:00;11.10;99.90
4759;DHT22;2393;50.560;12.636;2024-03-25T15:14:29;10.90;99.90
4759;DHT22;2393;50.560;12.636;2024-03-25T15:17:03;10.70;99.90
4759;DHT22;2393;50.560;12.636;2024-03-25T15:19:29;10.40;99.90
4759;DHT22;2393;50.560;12.636;2024-03-25T15:21:55;10.10;99.90
4759;DHT22;2393;50.560;12.636;2024-03-25T15:24:22;10.00;99.90
4759;DHT22;2393;50.560;12.636;2024-03-25T15:26:49;10.10;99.90
4759;DHT22;2393;50.560;12.636;2024-03-25T15:29:16;10.10;99.90
4759;DHT22;2393;50.560;12.636;2024-03-25T15:31:43;10.20;99.90
4759;DHT22;2393;50.560;12.636;2024-03-25T15:34:40;10.20;99.90
4759;DHT22;2393;50.560;12.636;2024-03-25T15:37:07;10.10;99.90
4759;DHT22;2393;50.560;12.636;2024-03-25T15:39:33;10.20;99.90
4759;DHT22;2393;50.560;12.636;2024-03-25T15:41:59;10.20;99.90
4759;DHT22;2393;50.560;12.636;2024-03-25T15:44:25;10.20;99.90
4759;DHT22;2393;50.560;12.636;2024-03-25T15:46:53;10.30;99.90
4759;DHT22;2393;50.560;12.636;2024-03-25T15:49:19;10.20;99.90
4759;DHT22;2393;50.560;12.636;2024-03-25T15:51:45;10.20;99.90
4759;DHT22;2393;50.560;12.636;2024-03-25T15:54:11;10.20;99.90
4759;DHT22;2393;50.560;12.636;2024-03-25T15:56:38;10.10;99.90
4759;DHT22;2393;50.560;12.636;2024-03-25T15:59:04;9.90;99.90
4759;DHT22;2393;50.560;12.636;2024-03-25T16:01:30;9.90;99.90
4759;DHT22;2393;50.560;12.636;2024-03-25T16:03:57;9.80;99.90